createdAt,value
2019-05-06T00:02:04.533Z,74.93
2019-05-06T00:04:36.630Z,75.20
2019-05-06T00:07:08.594Z,75.12
2019-05-06T00:09:44.184Z,75.31
2019-05-06T00:12:16.299Z,75.29
2019-05-06T00:14:48.258Z,75.22
2019-05-06T00:17:20.213Z,74.88
2019-05-06T00:19:53.993Z,73.87
2019-05-06T00:22:26.013Z,73.31
2019-05-06T00:25:05.387Z,73.91
2019-05-06T00:27:55.669Z,73.80
2019-05-06T00:30:27.626Z,74.16
2019-05-06T00:32:59.595Z,74.63
2019-05-06T00:35:34.234Z,74.71
2019-05-06T00:38:06.269Z,74.80
2019-05-06T00:40:40.555Z,74.60
2019-05-06T00:43:14.080Z,74.82
2019-05-06T00:45:48.722Z,74.61
2019-05-06T00:48:21.766Z,74.21
2019-05-06T00:50:53.749Z,74.48
2019-05-06T00:53:27.619Z,74.55
2019-05-06T00:55:59.603Z,74.54
2019-05-06T00:58:31.552Z,74.68
2019-05-06T01:01:04.645Z,74.73
2019-05-06T01:03:38.726Z,75.02
2019-05-06T01:06:10.684Z,75.02
2019-05-06T01:08:44.014Z,75.06
2019-05-06T01:11:16.205Z,75.29
2019-05-06T01:14:07.767Z,75.07
2019-05-06T01:16:39.716Z,75.24
2019-05-06T01:19:11.692Z,75.43
2019-05-06T01:21:44.678Z,75.15
2019-05-06T01:24:16.820Z,75.05
2019-05-06T01:26:48.790Z,74.89
2019-05-06T01:29:23.881Z,75.52
2019-05-06T01:31:55.757Z,75.78
2019-05-06T01:34:27.714Z,76.20
2019-05-06T01:36:59.667Z,76.71
2019-05-06T01:39:57.259Z,76.58
2019-05-06T01:42:51.620Z,76.69
2019-05-06T01:45:23.795Z,77.24
2019-05-06T01:47:55.816Z,77.02
2019-05-06T01:50:27.771Z,76.99
2019-05-06T01:52:59.726Z,77.03
2019-05-06T01:55:31.718Z,77.17
2019-05-06T01:58:05.083Z,76.88
2019-05-06T02:00:39.495Z,76.03
2019-05-06T02:03:10.989Z,75.85
2019-05-06T02:05:44.483Z,75.83
2019-05-06T02:08:16.493Z,76.19
2019-05-06T02:10:48.431Z,76.13
2019-05-06T02:13:20.409Z,75.33
2019-05-06T02:15:54.631Z,75.56
2019-05-06T02:18:26.218Z,75.65
2019-05-06T02:21:05.432Z,75.32
2019-05-06T02:23:40.930Z,75.69
2019-05-06T02:26:14.163Z,75.88
2019-05-06T02:28:49.144Z,76.17
2019-05-06T02:31:39.464Z,76.06
2019-05-06T02:34:15.835Z,76.15
2019-05-06T02:36:55.493Z,75.78
2019-05-06T02:39:27.525Z,75.75
2019-05-06T02:41:59.483Z,76.03
2019-05-06T02:44:33.548Z,75.88
2019-05-06T02:47:13.783Z,76.20
2019-05-06T02:49:53.627Z,76.20
2019-05-06T02:52:25.580Z,76.36
2019-05-06T02:54:57.526Z,76.24
2019-05-06T02:57:29.496Z,76.15
2019-05-06T03:00:04.790Z,76.45
2019-05-06T03:02:42.476Z,76.34
2019-05-06T03:05:09.195Z,76.64
2019-05-06T03:07:43.474Z,76.63
2019-05-06T03:10:15.409Z,76.41
2019-05-06T03:12:47.358Z,75.96
2019-05-06T03:15:19.276Z,75.84
2019-05-06T03:17:51.260Z,76.33
2019-05-06T03:20:43.880Z,76.52
2019-05-06T03:23:17.403Z,76.95
2019-05-06T03:25:49.348Z,76.70
2019-05-06T03:28:22.638Z,76.75
2019-05-06T03:30:56.697Z,76.70
2019-05-06T03:33:46.869Z,76.42
2019-05-06T03:36:15.568Z,76.65
2019-05-06T03:38:36.299Z,76.92
2019-05-06T03:41:08.225Z,76.50
2019-05-06T03:43:43.086Z,76.52
2019-05-06T03:46:24.661Z,76.21
2019-05-06T03:49:00.170Z,76.44
2019-05-06T03:51:34.220Z,76.49
2019-05-06T03:54:05.999Z,76.45
2019-05-06T03:56:37.947Z,76.45
2019-05-06T03:59:13.210Z,76.78
2019-05-06T04:01:44.667Z,76.52
2019-05-06T04:04:16.649Z,76.84
2019-05-06T04:06:48.833Z,76.55
2019-05-06T04:09:23.929Z,76.57
2019-05-06T04:11:55.506Z,76.74
2019-05-06T04:14:27.549Z,76.68
2019-05-06T04:17:14.009Z,76.45
2019-05-06T04:19:53.414Z,76.30
2019-05-06T04:22:44.003Z,76.34
2019-05-06T04:25:45.529Z,76.62
2019-05-06T04:28:19.759Z,76.29
2019-05-06T04:30:54.576Z,75.92
2019-05-06T04:33:25.858Z,75.71
2019-05-06T04:35:58.465Z,75.89
2019-05-06T04:38:33.529Z,75.94
2019-05-06T04:41:04.869Z,75.95
2019-05-06T04:43:37.207Z,76.27
2019-05-06T04:46:09.319Z,76.28
2019-05-06T04:48:43.335Z,76.05
2019-05-06T04:51:15.139Z,76.07
2019-05-06T04:53:47.586Z,75.92
2019-05-06T04:56:19.546Z,76.02
2019-05-06T04:58:53.782Z,75.52
2019-05-06T05:01:25.473Z,75.73
2019-05-06T05:03:57.408Z,76.04
2019-05-06T05:06:29.539Z,75.48
2019-05-06T05:09:02.808Z,74.93
2019-05-06T05:11:45.324Z,75.02
2019-05-06T05:14:35.911Z,75.10
2019-05-06T05:17:33.109Z,74.89
2019-05-06T05:20:06.017Z,74.88
2019-05-06T05:22:38.000Z,74.98
2019-05-06T05:25:12.060Z,74.73
2019-05-06T05:27:44.028Z,74.27
2019-05-06T05:30:16.170Z,74.29
2019-05-06T05:32:48.329Z,74.25
2019-05-06T05:35:20.300Z,74.39
2019-05-06T05:37:52.944Z,74.22
2019-05-06T05:40:25.322Z,74.35
2019-05-06T05:43:04.521Z,74.08
2019-05-06T05:45:36.508Z,73.23
2019-05-06T05:48:17.091Z,72.70
2019-05-06T05:50:49.024Z,72.74
2019-05-06T05:53:22.515Z,72.64
2019-05-06T05:55:54.704Z,72.24
2019-05-06T05:58:27.102Z,72.41
2019-05-06T06:00:59.248Z,72.12
2019-05-06T06:03:32.438Z,71.88
2019-05-06T06:06:04.506Z,71.43
2019-05-06T06:08:37.048Z,71.22
2019-05-06T06:11:16.106Z,71.02
2019-05-06T06:13:48.199Z,70.39
2019-05-06T06:16:32.841Z,69.58
2019-05-06T06:19:24.466Z,68.59
2019-05-06T06:22:00.222Z,68.19
2019-05-06T06:24:33.854Z,67.79
2019-05-06T06:27:05.816Z,66.74
2019-05-06T06:29:37.814Z,65.57
2019-05-06T06:33:28.932Z,64.42
2019-05-06T06:35:19.561Z,64.11
2019-05-06T06:38:06.330Z,63.43
2019-05-06T06:40:38.423Z,63.65
2019-05-06T06:43:15.712Z,62.74
2019-05-06T06:45:47.678Z,62.62
2019-05-06T06:48:19.638Z,62.36
2019-05-06T06:50:52.671Z,62.85
2019-05-06T06:53:24.725Z,62.31
2019-05-06T06:56:16.297Z,62.62
2019-05-06T06:59:16.250Z,62.46
2019-05-06T07:02:03.101Z,62.43
2019-05-06T07:04:39.862Z,61.92
2019-05-06T07:07:13.059Z,62.72
2019-05-06T07:09:45.281Z,62.99
2019-05-06T07:12:17.362Z,62.60
2019-05-06T07:14:52.385Z,62.59
2019-05-06T07:17:24.417Z,62.84
2019-05-06T07:19:59.480Z,63.31
2019-05-06T07:22:42.364Z,63.72
2019-05-06T07:25:14.340Z,63.45
2019-05-06T07:27:46.275Z,62.68
2019-05-06T07:30:22.920Z,62.64
2019-05-06T07:32:54.705Z,62.46
2019-05-06T07:35:38.577Z,62.15
2019-05-06T07:38:02.348Z,61.33
2019-05-06T07:40:34.489Z,60.81
2019-05-06T07:43:26.020Z,61.15
2019-05-06T07:45:59.886Z,60.29
2019-05-06T07:48:32.011Z,59.82
2019-05-06T07:51:04.030Z,60.20
2019-05-06T07:53:35.991Z,60.07
2019-05-06T07:56:07.999Z,60.35
2019-05-06T07:58:39.937Z,60.68
2019-05-06T08:01:13.666Z,59.49
2019-05-06T08:03:45.753Z,58.28
2019-05-06T08:06:17.724Z,57.38
2019-05-06T08:08:49.686Z,57.03
2019-05-06T08:11:22.300Z,56.58
2019-05-06T08:13:56.024Z,56.30
2019-05-06T08:16:31.835Z,55.49
2019-05-06T08:19:03.846Z,54.97
2019-05-06T08:21:38.589Z,55.31
2019-05-06T08:24:12.029Z,54.69
2019-05-06T08:26:44.201Z,53.25
2019-05-06T08:29:16.157Z,53.30
2019-05-06T08:31:48.147Z,53.64
2019-05-06T08:34:22.474Z,52.45
2019-05-06T08:37:08.812Z,53.34
2019-05-06T08:39:43.896Z,53.29
2019-05-06T08:42:14.720Z,52.97
2019-05-06T08:44:46.694Z,52.42
2019-05-06T08:47:18.660Z,52.88
2019-05-06T08:50:06.211Z,53.19
2019-05-06T08:52:56.617Z,54.08
2019-05-06T08:55:32.587Z,53.68
2019-05-06T08:58:04.733Z,53.17
2019-05-06T09:00:42.902Z,53.34
2019-05-06T09:03:15.057Z,54.46
2019-05-06T09:05:53.362Z,54.75
2019-05-06T09:08:25.278Z,52.59
2019-05-06T09:10:57.237Z,53.75
2019-05-06T09:13:29.298Z,55.47
2019-05-06T09:16:02.553Z,57.03
2019-05-06T09:18:34.627Z,58.20
2019-05-06T09:21:06.603Z,57.45
2019-05-06T09:23:38.566Z,56.72
2019-05-06T09:26:13.128Z,55.99
2019-05-06T09:29:02.305Z,54.82
2019-05-06T09:31:54.350Z,53.95
2019-05-06T09:34:38.602Z,53.01
2019-05-06T09:37:14.354Z,53.55
2019-05-06T09:39:46.670Z,52.24
2019-05-06T09:42:18.654Z,50.96
2019-05-06T09:44:53.633Z,50.79
2019-05-06T09:47:44.079Z,50.99
2019-05-06T09:50:23.069Z,50.72
2019-05-06T09:52:55.165Z,51.72
2019-05-06T09:55:36.271Z,49.79
2019-05-06T09:58:08.252Z,48.58
2019-05-06T10:00:43.147Z,48.64
2019-05-06T10:03:15.067Z,49.55
2019-05-06T10:05:47.042Z,49.04
2019-05-06T10:08:19.014Z,49.50
2019-05-06T10:10:58.673Z,49.53
2019-05-06T10:13:24.826Z,48.50
2019-05-06T10:15:57.788Z,49.06
2019-05-06T10:18:29.907Z,47.39
2019-05-06T10:21:01.892Z,45.71
2019-05-06T10:23:33.830Z,44.88
2019-05-06T10:26:05.798Z,46.17
2019-05-06T10:28:43.180Z,46.07
2019-05-06T10:31:16.626Z,44.29
2019-05-06T10:34:07.307Z,43.66
2019-05-06T10:36:49.262Z,45.49
2019-05-06T10:39:23.727Z,45.54
2019-05-06T10:42:09.972Z,46.88
2019-05-06T10:45:25.314Z,46.83
2019-05-06T10:47:57.280Z,46.28
2019-05-06T10:50:32.903Z,48.66
2019-05-06T10:53:23.333Z,49.32
2019-05-06T10:56:02.487Z,50.77
2019-05-06T10:58:34.522Z,50.43
2019-05-06T11:01:22.983Z,50.60
2019-05-06T11:03:54.366Z,50.95
2019-05-06T11:06:26.343Z,51.26
2019-05-06T11:08:58.326Z,51.27
2019-05-06T11:11:35.069Z,51.46
2019-05-06T11:14:04.198Z,51.03
2019-05-06T11:16:36.130Z,51.83
2019-05-06T11:19:08.125Z,51.40
2019-05-06T11:21:42.221Z,51.57
2019-05-06T11:24:13.999Z,51.36
2019-05-06T11:26:45.930Z,50.92
2019-05-06T11:29:23.075Z,50.08
2019-05-06T11:32:17.725Z,49.57
2019-05-06T11:34:58.331Z,49.64
2019-05-06T11:37:49.762Z,49.54
2019-05-06T11:40:17.392Z,49.70
2019-05-06T11:42:49.436Z,48.79
2019-05-06T11:45:22.830Z,46.83
2019-05-06T11:47:55.822Z,46.56
2019-05-06T11:50:28.155Z,46.55
2019-05-06T11:53:02.499Z,44.06
2019-05-06T11:55:38.608Z,43.72
2019-05-06T11:58:27.477Z,43.05
2019-05-06T12:01:02.788Z,40.39
2019-05-06T12:03:34.926Z,40.52
2019-05-06T12:06:06.886Z,40.98
2019-05-06T12:08:38.873Z,39.84
2019-05-06T12:11:12.543Z,41.08
2019-05-06T12:13:44.689Z,42.53
2019-05-06T12:16:16.650Z,44.40
2019-05-06T12:18:48.663Z,46.32
2019-05-06T12:21:22.994Z,47.31
2019-05-06T12:23:54.556Z,48.31
2019-05-06T12:26:26.522Z,48.57
2019-05-06T12:28:58.503Z,49.77
2019-05-06T12:31:32.723Z,50.00
2019-05-06T12:34:04.341Z,49.29
2019-05-06T12:36:36.324Z,48.24
2019-05-06T12:39:20.147Z,47.83
2019-05-06T12:42:15.331Z,47.93
2019-05-06T12:45:09.874Z,47.39
2019-05-06T12:47:49.375Z,47.22
2019-05-06T12:50:22.753Z,47.01
2019-05-06T12:52:57.771Z,47.49
2019-05-06T12:55:28.803Z,46.69
2019-05-06T12:58:02.794Z,47.82
2019-05-06T13:00:34.679Z,47.62
2019-05-06T13:03:06.610Z,48.22
2019-05-06T13:05:38.613Z,48.47
2019-05-06T13:08:19.054Z,48.63
2019-05-06T13:10:44.861Z,48.34
2019-05-06T13:13:16.845Z,47.34
2019-05-06T13:15:48.860Z,47.10
2019-05-06T13:18:23.210Z,47.13
2019-05-06T13:20:54.948Z,46.52
2019-05-06T13:23:35.222Z,46.36
2019-05-06T13:26:06.754Z,45.49
2019-05-06T13:28:42.693Z,46.17
2019-05-06T13:31:20.951Z,46.33
2019-05-06T13:33:59.135Z,45.46
2019-05-06T13:36:33.299Z,45.49
2019-05-06T13:39:32.676Z,46.21
2019-05-06T13:41:41.966Z,46.67
2019-05-06T13:44:17.906Z,45.82
2019-05-06T13:46:53.264Z,46.27
2019-05-06T13:49:43.276Z,45.28
2019-05-06T13:52:18.776Z,45.15
2019-05-06T13:54:52.802Z,44.98
2019-05-06T13:57:24.638Z,45.49
2019-05-06T13:59:56.668Z,45.40
2019-05-06T14:02:38.703Z,45.45
2019-05-06T14:05:12.132Z,45.01
2019-05-06T14:07:44.397Z,46.10
2019-05-06T14:10:16.471Z,46.45
2019-05-06T14:12:48.465Z,46.70
2019-05-06T14:15:20.440Z,46.81
2019-05-06T14:17:53.219Z,47.33
2019-05-06T14:20:25.523Z,44.22
2019-05-06T14:22:57.562Z,44.21
2019-05-06T14:25:56.950Z,45.15
2019-05-06T14:28:36.525Z,44.38
2019-05-06T14:31:13.404Z,45.53
2019-05-06T14:33:45.442Z,49.06
2019-05-06T14:36:17.459Z,50.36
2019-05-06T14:38:49.550Z,50.00
2019-05-06T14:41:27.062Z,48.99
2019-05-06T14:43:57.029Z,49.29
2019-05-06T14:46:50.436Z,47.77
2019-05-06T14:49:22.621Z,45.63
2019-05-06T14:51:54.654Z,43.54
2019-05-06T14:54:26.768Z,44.56
2019-05-06T14:57:08.630Z,46.54
2019-05-06T14:59:42.187Z,49.91
2019-05-06T15:02:14.501Z,50.35
2019-05-06T15:04:46.484Z,51.31
2019-05-06T15:07:18.489Z,51.46
2019-05-06T15:10:07.675Z,50.94
2019-05-06T15:12:24.374Z,51.03
2019-05-06T15:14:56.359Z,50.76
2019-05-06T15:17:28.342Z,50.79
2019-05-06T15:20:02.746Z,49.00
2019-05-06T15:22:34.260Z,49.80
2019-05-06T15:25:06.333Z,50.51
2019-05-06T15:27:38.352Z,50.44
2019-05-06T15:30:15.125Z,49.82
2019-05-06T15:32:47.142Z,49.78
2019-05-06T15:35:41.955Z,48.98
2019-05-06T15:38:18.390Z,48.56
2019-05-06T15:40:52.496Z,49.11
2019-05-06T15:43:24.336Z,49.67
2019-05-06T15:45:56.356Z,50.04
2019-05-06T15:48:28.343Z,49.96
2019-05-06T15:51:02.108Z,49.63
2019-05-06T15:53:34.259Z,49.87
2019-05-06T15:56:06.285Z,49.78
2019-05-06T15:58:38.297Z,49.59
2019-05-06T16:01:10.348Z,49.05
2019-05-06T16:03:43.115Z,49.93
2019-05-06T16:06:15.399Z,50.24
2019-05-06T16:08:47.449Z,50.81
2019-05-06T16:11:19.514Z,50.85
2019-05-06T16:13:53.411Z,51.42
2019-05-06T16:16:25.379Z,51.55
2019-05-06T16:18:57.385Z,51.21
2019-05-06T16:21:29.432Z,51.05
2019-05-06T16:24:12.594Z,50.99
2019-05-06T16:26:45.556Z,51.22
2019-05-06T16:29:22.388Z,51.36
2019-05-06T16:31:54.553Z,51.52
2019-05-06T16:34:26.526Z,51.73
2019-05-06T16:36:58.601Z,51.47
2019-05-06T16:39:33.062Z,50.87
2019-05-06T16:42:04.913Z,51.11
2019-05-06T16:44:36.908Z,51.57
2019-05-06T16:47:08.988Z,51.67
2019-05-06T16:49:42.285Z,51.09
2019-05-06T16:52:14.345Z,52.03
2019-05-06T16:54:46.336Z,51.62
2019-05-06T16:57:20.626Z,51.84
2019-05-06T16:59:52.671Z,51.28
2019-05-06T17:02:32.397Z,51.16
2019-05-06T17:05:23.151Z,51.77
2019-05-06T17:07:55.202Z,52.06
2019-05-06T17:10:27.222Z,51.67
2019-05-06T17:12:59.317Z,51.31
2019-05-06T17:15:32.200Z,52.00
2019-05-06T17:18:04.730Z,52.48
2019-05-06T17:20:36.692Z,52.59
2019-05-06T17:23:08.725Z,52.57
2019-05-06T17:25:42.308Z,53.50
2019-05-06T17:28:22.311Z,53.96
2019-05-06T17:31:32.361Z,54.25
2019-05-06T17:34:05.201Z,54.36
2019-05-06T17:36:38.261Z,54.95
2019-05-06T17:39:10.363Z,55.46
2019-05-06T17:41:48.339Z,55.39
2019-05-06T17:44:17.272Z,55.05
2019-05-06T17:47:07.835Z,55.70
2019-05-06T17:49:42.089Z,55.74
2019-05-06T17:52:16.971Z,55.68
2019-05-06T17:54:49.013Z,55.84
2019-05-06T17:57:22.411Z,55.38
2019-05-06T17:59:54.693Z,55.51
2019-05-06T18:02:27.235Z,55.91
2019-05-06T18:05:02.694Z,55.88
2019-05-06T18:07:34.027Z,56.64
2019-05-06T18:10:06.283Z,56.82
2019-05-06T18:12:38.310Z,56.45
2019-05-06T18:15:10.787Z,56.03
2019-05-06T18:17:43.037Z,56.04
2019-05-06T18:20:15.160Z,56.16
2019-05-06T18:22:47.189Z,56.79
2019-05-06T18:25:19.350Z,57.36
2019-05-06T18:27:52.654Z,57.52
2019-05-06T18:30:32.996Z,57.84
2019-05-06T18:32:58.941Z,57.88
2019-05-06T18:35:31.069Z,58.44
2019-05-06T18:38:03.183Z,58.74
2019-05-06T18:40:35.267Z,59.28
2019-05-06T18:43:07.250Z,60.13
2019-05-06T18:45:41.944Z,61.55
2019-05-06T18:48:13.972Z,61.55
2019-05-06T18:50:46.089Z,62.06
2019-05-06T18:53:18.141Z,62.29
2019-05-06T18:55:50.209Z,62.64
2019-05-06T18:58:22.447Z,62.40
2019-05-06T19:00:54.542Z,62.94
2019-05-06T19:03:28.835Z,63.09
2019-05-06T19:06:02.314Z,63.48
2019-05-06T19:08:46.558Z,63.66
2019-05-06T19:11:18.718Z,63.72
2019-05-06T19:13:52.650Z,64.36
2019-05-06T19:16:24.756Z,64.74
2019-05-06T19:18:56.805Z,64.49
2019-05-06T19:21:28.810Z,64.57
2019-05-06T19:24:02.806Z,64.78
2019-05-06T19:26:34.845Z,65.07
2019-05-06T19:29:07.060Z,65.24
2019-05-06T19:31:39.142Z,65.37
2019-05-06T19:34:12.962Z,65.62
2019-05-06T19:36:45.158Z,65.90
2019-05-06T19:39:17.249Z,66.23
2019-05-06T19:41:49.270Z,66.26
2019-05-06T19:44:22.050Z,66.48
2019-05-06T19:46:54.327Z,66.95
2019-05-06T19:49:26.445Z,66.99
2019-05-06T19:51:58.473Z,67.36
2019-05-06T19:54:32.878Z,67.67
2019-05-06T19:57:04.456Z,67.46
2019-05-06T19:59:36.579Z,67.15
2019-05-06T20:02:08.587Z,67.31
2019-05-06T20:04:44.460Z,67.59
2019-05-06T20:07:27.296Z,67.24
2019-05-06T20:10:12.341Z,66.73
2019-05-06T20:12:59.439Z,67.05
2019-05-06T20:15:38.171Z,67.37
2019-05-06T20:18:10.188Z,67.40
2019-05-06T20:20:42.609Z,67.79
2019-05-06T20:23:14.694Z,68.01
2019-05-06T20:25:46.729Z,68.07
2019-05-06T20:28:18.785Z,68.24
2019-05-06T20:30:52.326Z,68.21
2019-05-06T20:33:24.765Z,67.89
2019-05-06T20:35:56.798Z,67.66
2019-05-06T20:38:28.887Z,67.67
2019-05-06T20:41:02.986Z,67.95
2019-05-06T20:43:35.036Z,68.06
2019-05-06T20:46:07.074Z,68.44
2019-05-06T20:48:39.155Z,68.79
2019-05-06T20:51:12.342Z,68.97
2019-05-06T20:53:44.579Z,69.29
2019-05-06T20:56:16.615Z,69.16
2019-05-06T20:58:48.640Z,69.07
2019-05-06T21:01:21.869Z,69.14
2019-05-06T21:03:53.967Z,69.32
2019-05-06T21:06:26.019Z,69.31
2019-05-06T21:08:58.048Z,69.69
2019-05-06T21:11:32.420Z,70.00
2019-05-06T21:14:03.952Z,70.01
2019-05-06T21:16:35.973Z,70.62
2019-05-06T21:19:07.962Z,70.47
2019-05-06T21:21:39.996Z,70.39
2019-05-06T21:24:12.996Z,70.46
2019-05-06T21:26:46.401Z,70.59
2019-05-06T21:29:18.699Z,70.68
2019-05-06T21:31:52.911Z,70.90
2019-05-06T21:34:24.572Z,70.93
2019-05-06T21:36:56.621Z,70.79
2019-05-06T21:39:28.624Z,70.93
2019-05-06T21:42:00.620Z,71.48
2019-05-06T21:44:32.613Z,71.41
2019-05-06T21:47:04.608Z,71.66
2019-05-06T21:49:36.582Z,71.66
2019-05-06T21:52:08.571Z,71.68
2019-05-06T21:54:40.613Z,72.03
2019-05-06T21:57:12.632Z,72.17
2019-05-06T21:59:44.599Z,72.15
2019-05-06T22:02:18.956Z,72.29
2019-05-06T22:04:56.468Z,72.28
2019-05-06T22:07:28.446Z,72.40
2019-05-06T22:10:02.741Z,72.31
2019-05-06T22:12:34.728Z,72.23
2019-05-06T22:15:07.593Z,72.53
2019-05-06T22:17:39.591Z,72.62
2019-05-06T22:20:11.553Z,72.73
2019-05-06T22:22:44.643Z,72.87
2019-05-06T22:25:16.644Z,73.00
2019-05-06T22:27:48.632Z,73.33
2019-05-06T22:30:23.681Z,72.79
2019-05-06T22:32:55.885Z,72.64
2019-05-06T22:35:27.870Z,72.72
2019-05-06T22:38:02.866Z,72.65
2019-05-06T22:40:38.182Z,72.54
2019-05-06T22:43:12.218Z,72.18
2019-05-06T22:45:45.483Z,72.26
2019-05-06T22:48:17.438Z,72.43
2019-05-06T22:50:49.392Z,72.46
2019-05-06T22:53:22.128Z,72.42
2019-05-06T22:55:57.207Z,72.23
2019-05-06T22:58:29.200Z,71.84
2019-05-06T23:01:07.378Z,72.01
2019-05-06T23:03:39.378Z,72.04
2019-05-06T23:06:12.726Z,72.34
2019-05-06T23:08:44.741Z,72.50
2019-05-06T23:11:17.820Z,72.59
2019-05-06T23:13:49.787Z,72.77
2019-05-06T23:16:24.556Z,72.91
2019-05-06T23:18:59.022Z,72.79
2019-05-06T23:21:33.478Z,73.70
2019-05-06T23:24:05.036Z,73.68
2019-05-06T23:26:39.790Z,73.69
2019-05-06T23:29:14.488Z,73.82
2019-05-06T23:31:46.440Z,73.76
2019-05-06T23:34:23.106Z,74.05
2019-05-06T23:37:26.535Z,73.94
2019-05-06T23:40:39.499Z,74.31
2019-05-06T23:43:47.997Z,74.96
2019-05-06T23:46:56.712Z,75.24
2019-05-06T23:50:05.301Z,74.71
2019-05-06T23:53:13.653Z,74.52
2019-05-06T23:56:22.221Z,75.06
2019-05-06T23:58:55.341Z,75.53
